createdAt,value
2022-09-21T00:01:35.157Z,88.06
2022-09-21T00:04:05.173Z,87.71
2022-09-21T00:06:35.492Z,88.03
2022-09-21T00:09:05.814Z,87.72
2022-09-21T00:11:34.957Z,87.59
2022-09-21T00:14:07.413Z,87.33
2022-09-21T00:16:36.069Z,87.28
2022-09-21T00:19:04.552Z,87.66
2022-09-21T00:21:32.765Z,86.96
2022-09-21T00:24:02.651Z,87.33
2022-09-21T00:26:33.347Z,87.21
2022-09-21T00:29:03.333Z,87.21
2022-09-21T00:31:32.475Z,87.19
2022-09-21T00:34:01.170Z,87.34
2022-09-21T00:36:29.919Z,87.85
2022-09-21T00:39:01.103Z,87.66
2022-09-21T00:41:36.148Z,87.51
2022-09-21T00:44:39.724Z,87.95
2022-09-21T00:47:14.226Z,87.93
2022-09-21T00:49:43.884Z,88.17
2022-09-21T00:52:15.001Z,88.36
2022-09-21T00:54:46.500Z,88.33
2022-09-21T00:57:16.884Z,87.90
2022-09-21T00:59:46.540Z,88.13
2022-09-21T01:02:20.202Z,88.19
2022-09-21T01:04:48.760Z,88.16
2022-09-21T01:07:21.752Z,88.19
2022-09-21T01:09:52.312Z,88.32
2022-09-21T01:12:31.916Z,88.46
2022-09-21T01:15:08.574Z,88.36
2022-09-21T01:17:47.754Z,88.92
2022-09-21T01:20:36.005Z,88.63
2022-09-21T01:23:20.191Z,88.38
2022-09-21T01:26:01.579Z,88.66
2022-09-21T01:28:41.705Z,88.50
2022-09-21T01:31:15.566Z,88.47
2022-09-21T01:33:48.814Z,88.34
2022-09-21T01:36:21.937Z,88.37
2022-09-21T01:38:52.423Z,88.27
2022-09-21T01:41:23.664Z,88.46
2022-09-21T01:43:55.900Z,88.53
2022-09-21T01:46:29.973Z,88.38
2022-09-21T01:49:03.742Z,88.41
2022-09-21T01:51:34.280Z,88.51
2022-09-21T01:54:10.660Z,88.45
2022-09-21T01:56:41.990Z,88.77
2022-09-21T01:59:15.762Z,88.69
2022-09-21T02:01:47.970Z,88.62
2022-09-21T02:04:16.231Z,88.73
2022-09-21T02:06:47.877Z,88.24
2022-09-21T02:09:16.298Z,89.01
2022-09-21T02:11:45.002Z,88.58
2022-09-21T02:14:16.527Z,88.47
2022-09-21T02:16:56.503Z,88.42
2022-09-21T02:19:34.192Z,88.36
2022-09-21T02:22:09.022Z,88.20
2022-09-21T02:24:42.343Z,88.47
2022-09-21T02:27:19.863Z,88.11
2022-09-21T02:29:51.935Z,87.97
2022-09-21T02:32:30.505Z,87.91
2022-09-21T02:35:04.938Z,88.00
2022-09-21T02:37:38.310Z,88.18
2022-09-21T02:40:16.827Z,87.99
2022-09-21T02:42:47.624Z,88.02
2022-09-21T02:45:21.699Z,88.03
2022-09-21T02:47:56.680Z,88.13
2022-09-21T02:50:29.704Z,88.09
2022-09-21T02:52:59.274Z,88.36
2022-09-21T02:55:28.490Z,88.43
2022-09-21T02:57:57.058Z,88.46
2022-09-21T03:00:25.080Z,88.69
2022-09-21T03:02:54.790Z,88.58
2022-09-21T03:05:22.988Z,88.68
2022-09-21T03:07:51.064Z,88.65
2022-09-21T03:10:19.459Z,88.72
2022-09-21T03:12:47.495Z,88.88
2022-09-21T03:15:16.638Z,88.83
2022-09-21T03:17:44.737Z,88.90
2022-09-21T03:20:14.348Z,88.88
2022-09-21T03:22:42.495Z,88.76
2022-09-21T03:25:12.434Z,88.65
2022-09-21T03:27:41.346Z,88.53
2022-09-21T03:30:10.436Z,88.90
2022-09-21T03:32:38.468Z,89.02
2022-09-21T03:35:08.406Z,88.67
2022-09-21T03:37:41.163Z,88.57
2022-09-21T03:40:11.646Z,88.81
2022-09-21T03:42:39.863Z,88.97
2022-09-21T03:45:09.441Z,88.89
2022-09-21T03:47:37.635Z,89.08
2022-09-21T03:50:10.039Z,89.25
2022-09-21T03:52:39.870Z,89.17
2022-09-21T03:55:09.949Z,89.25
2022-09-21T03:57:41.202Z,89.04
2022-09-21T04:00:12.180Z,89.26
2022-09-21T04:02:41.381Z,89.55
2022-09-21T04:05:11.638Z,89.69
2022-09-21T04:07:45.895Z,90.04
2022-09-21T04:10:15.698Z,90.27
2022-09-21T04:12:44.462Z,90.70
2022-09-21T04:15:13.595Z,90.99
2022-09-21T04:17:42.289Z,91.30
2022-09-21T04:20:10.957Z,91.39
2022-09-21T04:22:43.394Z,91.48
2022-09-21T04:25:13.917Z,91.60
2022-09-21T04:27:42.521Z,91.63
2022-09-21T04:30:12.572Z,91.71
2022-09-21T04:32:41.163Z,91.81
2022-09-21T04:35:10.687Z,91.76
2022-09-21T04:37:38.889Z,91.65
2022-09-21T04:40:08.384Z,91.41
2022-09-21T04:42:38.141Z,91.19
2022-09-21T04:45:08.004Z,90.98
2022-09-21T04:47:36.154Z,91.10
2022-09-21T04:50:04.397Z,90.97
2022-09-21T04:52:32.526Z,91.15
2022-09-21T04:55:00.581Z,91.12
2022-09-21T04:57:28.730Z,90.97
2022-09-21T04:59:58.165Z,91.21
2022-09-21T05:02:26.755Z,91.31
2022-09-21T05:04:54.829Z,91.22
2022-09-21T05:07:22.949Z,90.89
2022-09-21T05:10:05.263Z,90.74
2022-09-21T05:12:36.026Z,90.36
2022-09-21T05:15:09.505Z,90.27
2022-09-21T05:17:37.700Z,90.40
2022-09-21T05:20:06.593Z,90.02
2022-09-21T05:22:34.778Z,90.19
2022-09-21T05:25:05.663Z,90.12
2022-09-21T05:27:33.892Z,89.95
2022-09-21T05:30:02.520Z,90.16
2022-09-21T05:32:44.161Z,89.99
2022-09-21T05:35:26.157Z,89.91
2022-09-21T05:38:00.394Z,89.73
2022-09-21T05:40:29.423Z,89.50
2022-09-21T05:42:58.475Z,89.75
2022-09-21T05:45:29.017Z,89.62
2022-09-21T05:48:11.430Z,89.63
2022-09-21T05:50:50.353Z,89.73
2022-09-21T05:53:42.312Z,89.46
2022-09-21T05:56:19.551Z,89.45
2022-09-21T05:58:59.628Z,89.52
2022-09-21T06:01:42.534Z,89.92
2022-09-21T06:04:13.694Z,89.56
2022-09-21T06:06:42.047Z,89.60
2022-09-21T06:09:10.283Z,89.18
2022-09-21T06:11:38.444Z,89.26
2022-09-21T06:14:07.051Z,89.02
2022-09-21T06:16:39.447Z,89.31
2022-09-21T06:19:07.980Z,89.22
2022-09-21T06:21:37.557Z,89.49
2022-09-21T06:24:06.403Z,88.91
2022-09-21T06:26:34.631Z,87.58
2022-09-21T06:29:03.080Z,88.87
2022-09-21T06:31:31.870Z,88.23
2022-09-21T06:34:00.089Z,88.61
2022-09-21T06:36:28.305Z,87.57
2022-09-21T06:38:58.234Z,87.45
2022-09-21T06:41:28.654Z,88.10
2022-09-21T06:43:58.255Z,86.92
2022-09-21T06:46:26.490Z,87.54
2022-09-21T06:48:55.177Z,87.72
2022-09-21T06:51:24.162Z,86.79
2022-09-21T06:53:57.794Z,86.57
2022-09-21T06:56:26.105Z,86.38
2022-09-21T06:58:54.863Z,84.55
2022-09-21T07:01:23.256Z,83.12
2022-09-21T07:03:52.863Z,84.03
2022-09-21T07:06:21.466Z,83.21
2022-09-21T07:11:42.762Z,82.25
2022-09-21T07:14:11.000Z,83.23
2022-09-21T07:16:40.083Z,83.32
2022-09-21T07:19:12.080Z,84.59
2022-09-21T07:21:43.478Z,83.33
2022-09-21T07:24:12.573Z,83.08
2022-09-21T07:26:42.469Z,83.32
2022-09-21T07:29:10.751Z,81.43
2022-09-21T07:31:39.281Z,80.41
2022-09-21T07:34:07.520Z,79.87
2022-09-21T07:36:35.840Z,81.71
2022-09-21T07:39:04.508Z,78.99
2022-09-21T07:41:33.214Z,78.68
2022-09-21T07:44:03.421Z,79.28
2022-09-21T07:46:31.695Z,78.87
2022-09-21T07:49:00.004Z,78.60
2022-09-21T07:51:28.193Z,79.55
2022-09-21T07:53:57.878Z,79.01
2022-09-21T07:56:26.390Z,79.02
2022-09-21T07:59:08.401Z,77.19
2022-09-21T08:01:42.992Z,77.45
2022-09-21T08:04:12.408Z,76.07
2022-09-21T08:06:41.169Z,75.01
2022-09-21T08:09:09.767Z,75.68
2022-09-21T08:11:39.292Z,75.86
2022-09-21T08:14:07.527Z,76.77
2022-09-21T08:16:39.308Z,77.89
2022-09-21T08:19:07.609Z,76.98
2022-09-21T08:21:35.709Z,77.12
2022-09-21T08:24:04.332Z,77.53
2022-09-21T08:26:33.606Z,78.16
2022-09-21T08:29:01.833Z,78.68
2022-09-21T08:31:31.148Z,77.76
2022-09-21T08:34:01.492Z,78.84
2022-09-21T08:36:29.721Z,78.46
2022-09-21T08:38:58.326Z,79.31
2022-09-21T08:41:46.323Z,78.09
2022-09-21T08:44:18.083Z,78.79
2022-09-21T08:46:49.985Z,77.17
2022-09-21T08:49:24.300Z,77.34
2022-09-21T08:51:57.642Z,75.72
2022-09-21T08:54:31.658Z,75.76
2022-09-21T08:57:07.153Z,76.59
2022-09-21T08:59:35.924Z,75.52
2022-09-21T09:02:19.356Z,75.07
2022-09-21T09:05:01.559Z,75.25
2022-09-21T09:07:54.582Z,74.87
2022-09-21T09:10:37.515Z,74.20
2022-09-21T09:13:20.946Z,74.47
2022-09-21T09:16:01.864Z,73.04
2022-09-21T09:18:43.395Z,73.97
2022-09-21T09:21:28.161Z,74.23
2022-09-21T09:24:04.910Z,74.33
2022-09-21T09:26:42.910Z,72.94
2022-09-21T09:29:19.400Z,74.20
2022-09-21T09:31:49.068Z,69.37
2022-09-21T09:34:23.026Z,68.18
2022-09-21T09:36:59.772Z,66.51
2022-09-21T09:39:31.001Z,68.07
2022-09-21T09:42:29.674Z,65.76
2022-09-21T09:45:27.568Z,65.73
2022-09-21T09:48:07.887Z,65.68
2022-09-21T09:50:42.333Z,67.39
2022-09-21T09:53:15.554Z,67.65
2022-09-21T09:55:46.982Z,66.96
2022-09-21T09:58:20.513Z,69.02
2022-09-21T10:00:53.166Z,67.77
2022-09-21T10:03:25.096Z,65.31
2022-09-21T10:05:54.192Z,65.33
2022-09-21T10:08:43.184Z,65.80
2022-09-21T10:11:13.460Z,67.04
2022-09-21T10:13:43.282Z,65.93
2022-09-21T10:16:19.376Z,67.44
2022-09-21T10:18:50.794Z,65.15
2022-09-21T10:21:23.448Z,67.19
2022-09-21T10:23:58.041Z,65.56
2022-09-21T10:26:32.999Z,65.77
2022-09-21T10:29:18.154Z,64.64
2022-09-21T10:31:56.641Z,62.57
2022-09-21T10:34:29.420Z,62.74
2022-09-21T10:36:59.360Z,62.12
2022-09-21T10:39:32.862Z,62.38
2022-09-21T10:42:06.751Z,61.66
2022-09-21T10:44:39.951Z,61.06
2022-09-21T10:47:20.660Z,61.44
2022-09-21T10:49:52.318Z,61.92
2022-09-21T10:52:23.985Z,59.44
2022-09-21T10:54:57.269Z,61.25
2022-09-21T10:57:28.206Z,59.04
2022-09-21T10:59:57.414Z,60.59
2022-09-21T11:02:29.871Z,60.00
2022-09-21T11:05:02.773Z,58.42
2022-09-21T11:07:37.188Z,59.57
2022-09-21T11:10:14.628Z,62.12
2022-09-21T11:12:53.241Z,59.22
2022-09-21T11:15:41.064Z,60.59
2022-09-21T11:18:19.570Z,59.17
2022-09-21T11:20:52.426Z,56.52
2022-09-21T11:23:37.529Z,57.66
2022-09-21T11:26:13.813Z,59.70
2022-09-21T11:28:47.504Z,57.68
2022-09-21T11:31:47.479Z,59.19
2022-09-21T11:34:41.743Z,57.40
2022-09-21T11:37:22.131Z,58.56
2022-09-21T11:40:08.673Z,58.71
2022-09-21T11:42:49.648Z,58.80
2022-09-21T11:45:35.262Z,59.95
2022-09-21T11:48:14.220Z,58.55
2022-09-21T11:50:54.457Z,58.54
2022-09-21T11:53:32.865Z,57.57
2022-09-21T11:56:22.960Z,57.84
2022-09-21T11:58:59.035Z,57.00
2022-09-21T12:01:56.321Z,56.26
2022-09-21T12:04:39.677Z,58.80
2022-09-21T12:07:27.353Z,57.42
2022-09-21T12:10:46.164Z,54.47
2022-09-21T12:13:28.267Z,53.98
2022-09-21T12:16:04.230Z,52.75
2022-09-21T12:18:43.786Z,52.09
2022-09-21T12:21:20.664Z,52.49
2022-09-21T12:23:54.213Z,50.73
2022-09-21T12:26:26.172Z,54.03
2022-09-21T12:29:00.853Z,53.30
2022-09-21T12:31:36.946Z,53.66
2022-09-21T12:34:11.326Z,53.24
2022-09-21T12:36:44.628Z,54.90
2022-09-21T12:39:20.008Z,56.04
2022-09-21T12:41:54.017Z,52.43
2022-09-21T12:44:30.129Z,53.36
2022-09-21T12:47:11.797Z,52.53
2022-09-21T12:49:47.615Z,48.83
2022-09-21T12:52:22.692Z,49.34
2022-09-21T12:54:58.259Z,49.43
2022-09-21T12:58:10.862Z,50.09
2022-09-21T13:00:26.078Z,51.30
2022-09-21T13:03:00.068Z,50.79
2022-09-21T13:05:37.811Z,50.49
2022-09-21T13:08:12.722Z,51.59
2022-09-21T13:10:55.075Z,52.74
2022-09-21T13:13:31.784Z,51.99
2022-09-21T13:16:01.503Z,50.61
2022-09-21T13:18:36.326Z,51.39
2022-09-21T13:21:17.746Z,53.45
2022-09-21T13:23:59.858Z,53.50
2022-09-21T13:26:35.899Z,52.59
2022-09-21T13:29:36.856Z,51.88
2022-09-21T13:32:26.157Z,51.70
2022-09-21T13:35:49.440Z,50.44
2022-09-21T13:38:28.780Z,53.66
2022-09-21T13:41:00.208Z,52.20
2022-09-21T13:43:48.320Z,53.17
2022-09-21T13:46:51.988Z,52.14
2022-09-21T13:49:26.385Z,51.04
2022-09-21T13:52:00.250Z,53.22
2022-09-21T13:54:33.593Z,54.71
2022-09-21T13:57:09.250Z,50.73
2022-09-21T13:59:43.758Z,51.91
2022-09-21T14:02:26.260Z,49.45
2022-09-21T14:04:54.757Z,49.91
2022-09-21T14:07:30.651Z,49.56
2022-09-21T14:10:02.552Z,50.99
2022-09-21T14:12:39.404Z,49.36
2022-09-21T14:15:39.864Z,49.47
2022-09-21T14:18:21.857Z,50.81
2022-09-21T14:21:25.421Z,47.21
2022-09-21T14:24:23.084Z,47.81
2022-09-21T14:27:03.706Z,49.45
2022-09-21T14:29:45.849Z,49.38
2022-09-21T14:32:19.447Z,52.02
2022-09-21T14:34:49.972Z,50.68
2022-09-21T14:37:29.561Z,51.74
2022-09-21T14:40:01.837Z,51.37
2022-09-21T14:42:32.034Z,51.81
2022-09-21T14:45:06.110Z,50.92
2022-09-21T14:47:58.753Z,50.46
2022-09-21T14:50:33.500Z,51.47
2022-09-21T14:53:31.548Z,50.75
2022-09-21T14:56:23.697Z,51.96
2022-09-21T14:59:07.703Z,51.31
2022-09-21T15:01:42.150Z,50.74
2022-09-21T15:04:26.563Z,52.07
2022-09-21T15:07:21.364Z,50.73
2022-09-21T15:10:24.401Z,51.37
2022-09-21T15:12:59.589Z,51.60
2022-09-21T15:15:40.765Z,51.19
2022-09-21T15:18:20.218Z,51.89
2022-09-21T15:21:01.335Z,51.77
2022-09-21T15:23:30.958Z,52.01
2022-09-21T15:26:02.859Z,53.25
2022-09-21T15:29:04.968Z,52.84
2022-09-21T15:31:32.443Z,54.14
2022-09-21T15:34:02.009Z,55.19
2022-09-21T15:36:31.438Z,54.51
2022-09-21T15:39:00.702Z,55.97
2022-09-21T15:41:41.053Z,55.37
2022-09-21T15:44:17.388Z,55.52
2022-09-21T15:46:52.021Z,55.51
2022-09-21T15:49:22.117Z,55.86
2022-09-21T15:51:57.372Z,56.22
2022-09-21T15:54:32.339Z,56.25
2022-09-21T15:57:08.664Z,56.54
2022-09-21T15:59:38.528Z,57.02
2022-09-21T16:02:17.074Z,57.69
2022-09-21T16:04:51.005Z,57.71
2022-09-21T16:07:33.039Z,56.88
2022-09-21T16:10:02.268Z,58.17
2022-09-21T16:12:41.831Z,58.05
2022-09-21T16:15:22.873Z,58.32
2022-09-21T16:18:03.070Z,59.03
2022-09-21T16:20:43.843Z,58.47
2022-09-21T16:23:17.839Z,59.93
2022-09-21T16:25:53.757Z,59.87
2022-09-21T16:28:32.007Z,60.96
2022-09-21T16:31:01.738Z,60.42
2022-09-21T16:33:42.432Z,61.18
2022-09-21T16:36:42.051Z,61.48
2022-09-21T16:39:19.606Z,61.76
2022-09-21T16:42:00.287Z,61.85
2022-09-21T16:44:31.592Z,62.03
2022-09-21T16:47:02.974Z,60.79
2022-09-21T16:49:35.159Z,61.70
2022-09-21T16:52:04.494Z,61.35
2022-09-21T16:54:32.984Z,62.05
2022-09-21T16:57:03.701Z,62.56
2022-09-21T16:59:33.297Z,62.49
2022-09-21T17:02:04.342Z,63.48
2022-09-21T17:04:36.110Z,63.49
2022-09-21T17:07:08.477Z,64.05
2022-09-21T17:09:39.037Z,64.12
2022-09-21T17:12:09.471Z,64.41
2022-09-21T17:14:41.903Z,64.99
2022-09-21T17:17:19.392Z,65.28
2022-09-21T17:19:50.998Z,65.32
2022-09-21T17:22:22.088Z,66.14
2022-09-21T17:24:52.504Z,65.82
2022-09-21T17:27:22.987Z,66.07
2022-09-21T17:29:53.917Z,66.54
2022-09-21T17:32:25.604Z,67.36
2022-09-21T17:34:59.846Z,67.85
2022-09-21T17:37:28.233Z,68.42
2022-09-21T17:39:56.352Z,69.07
2022-09-21T17:42:26.043Z,69.49
2022-09-21T17:45:05.053Z,70.31
2022-09-21T17:47:35.850Z,70.26
2022-09-21T17:50:19.654Z,70.31
2022-09-21T17:53:06.011Z,70.54
2022-09-21T17:55:34.256Z,70.86
2022-09-21T17:58:30.205Z,70.91
2022-09-21T18:01:02.559Z,71.52
2022-09-21T18:03:36.079Z,70.90
2022-09-21T18:06:05.086Z,71.24
2022-09-21T18:08:36.216Z,70.87
2022-09-21T18:11:13.817Z,71.09
2022-09-21T18:13:55.320Z,71.82
2022-09-21T18:16:28.268Z,71.76
2022-09-21T18:19:26.744Z,72.31
2022-09-21T18:22:03.498Z,72.20
2022-09-21T18:24:32.975Z,72.04
2022-09-21T18:27:05.312Z,71.89
2022-09-21T18:29:39.773Z,72.21
2022-09-21T18:32:31.097Z,71.98
2022-09-21T18:35:25.854Z,72.40
2022-09-21T18:38:15.656Z,72.14
2022-09-21T18:40:53.397Z,72.76
2022-09-21T18:43:31.172Z,72.55
2022-09-21T18:46:04.614Z,72.87
2022-09-21T18:48:48.519Z,72.77
2022-09-21T18:51:24.850Z,72.83
2022-09-21T18:53:56.669Z,72.72
2022-09-21T18:56:26.048Z,72.66
2022-09-21T18:58:57.469Z,73.33
2022-09-21T19:01:29.775Z,72.71
2022-09-21T19:03:58.558Z,72.96
2022-09-21T19:06:45.651Z,73.39
2022-09-21T19:09:31.773Z,73.71
2022-09-21T19:12:08.640Z,74.96
2022-09-21T19:14:44.910Z,74.36
2022-09-21T19:17:23.431Z,74.59
2022-09-21T19:20:04.671Z,76.01
2022-09-21T19:22:43.419Z,75.94
2022-09-21T19:25:20.007Z,74.89
2022-09-21T19:27:54.652Z,74.51
2022-09-21T19:30:23.724Z,75.47
2022-09-21T19:32:54.119Z,76.25
2022-09-21T19:35:28.817Z,75.64
2022-09-21T19:38:01.509Z,75.86
2022-09-21T19:40:32.534Z,76.62
2022-09-21T19:43:21.332Z,76.46
2022-09-21T19:46:05.321Z,76.25
2022-09-21T19:48:44.257Z,75.92
2022-09-21T19:51:23.629Z,76.50
2022-09-21T19:54:14.324Z,76.90
2022-09-21T19:57:08.070Z,77.60
2022-09-21T19:59:45.027Z,78.29
2022-09-21T20:02:27.466Z,79.01
2022-09-21T20:05:01.794Z,79.01
2022-09-21T20:07:44.600Z,79.16
2022-09-21T20:10:37.882Z,78.89
2022-09-21T20:13:18.772Z,79.57
2022-09-21T20:15:51.343Z,79.70
2022-09-21T20:18:29.201Z,79.75
2022-09-21T20:20:58.339Z,80.47
2022-09-21T20:23:27.133Z,80.51
2022-09-21T20:26:05.983Z,80.40
2022-09-21T20:28:35.190Z,80.37
2022-09-21T20:31:04.930Z,80.61
2022-09-21T20:33:33.769Z,80.30
2022-09-21T20:36:05.000Z,79.69
2022-09-21T20:38:34.339Z,79.80
2022-09-21T20:41:05.332Z,79.90
2022-09-21T20:43:37.878Z,79.14
2022-09-21T20:46:09.246Z,79.51
2022-09-21T20:48:43.470Z,80.42
2022-09-21T20:51:12.425Z,80.32
2022-09-21T20:53:41.670Z,80.37
2022-09-21T20:56:12.137Z,81.20
2022-09-21T20:58:40.316Z,81.48
2022-09-21T21:01:10.293Z,81.43
2022-09-21T21:03:38.571Z,81.29
2022-09-21T21:06:11.868Z,81.69
2022-09-21T21:08:42.128Z,81.70
2022-09-21T21:11:12.027Z,81.96
2022-09-21T21:13:40.290Z,82.02
2022-09-21T21:16:12.045Z,81.65
2022-09-21T21:18:45.425Z,81.61
2022-09-21T21:21:13.748Z,81.81
2022-09-21T21:23:58.675Z,81.57
2022-09-21T21:26:50.256Z,81.63
2022-09-21T21:29:16.769Z,81.51
2022-09-21T21:31:45.275Z,81.52
2022-09-21T21:34:13.570Z,81.63
2022-09-21T21:36:43.119Z,81.48
2022-09-21T21:39:11.914Z,81.30
2022-09-21T21:41:43.419Z,81.93
2022-09-21T21:44:12.554Z,81.55
2022-09-21T21:46:40.666Z,81.15
2022-09-21T21:49:09.029Z,81.25
2022-09-21T21:51:40.004Z,81.67
2022-09-21T21:54:10.231Z,81.72
2022-09-21T21:56:38.394Z,81.99
2022-09-21T21:59:08.147Z,81.75
2022-09-21T22:01:39.288Z,82.07
2022-09-21T22:04:07.724Z,82.04
2022-09-21T22:06:37.478Z,82.17
2022-09-21T22:09:07.527Z,82.86
2022-09-21T22:11:36.106Z,82.95
2022-09-21T22:14:06.049Z,83.02
2022-09-21T22:16:37.810Z,83.19
2022-09-21T22:19:08.587Z,83.61
2022-09-21T22:21:41.288Z,84.34
2022-09-21T22:24:10.628Z,84.33
2022-09-21T22:26:40.814Z,84.39
2022-09-21T22:29:11.267Z,84.70
2022-09-21T22:31:42.855Z,84.70
2022-09-21T22:34:12.649Z,84.89
2022-09-21T22:36:43.363Z,84.69
2022-09-21T22:39:12.252Z,84.90
2022-09-21T22:41:41.783Z,84.80
2022-09-21T22:44:10.729Z,84.31
2022-09-21T22:46:40.741Z,84.00
2022-09-21T22:49:09.120Z,83.72
2022-09-21T22:51:38.068Z,83.70
2022-09-21T22:54:06.475Z,83.69
2022-09-21T22:56:35.345Z,83.96
2022-09-21T22:59:06.843Z,83.78
2022-09-21T23:01:36.684Z,83.79
2022-09-21T23:04:08.229Z,83.95
2022-09-21T23:06:38.065Z,84.27
2022-09-21T23:09:08.547Z,84.41
2022-09-21T23:11:38.038Z,84.46
2022-09-21T23:14:06.730Z,84.52
2022-09-21T23:16:34.974Z,84.77
2022-09-21T23:19:03.379Z,84.79
2022-09-21T23:21:32.945Z,84.79
2022-09-21T23:24:03.464Z,85.15
2022-09-21T23:26:33.186Z,84.98
2022-09-21T23:29:02.645Z,85.18
2022-09-21T23:31:32.369Z,85.31
2022-09-21T23:34:07.224Z,85.37
2022-09-21T23:36:37.637Z,85.47
2022-09-21T23:39:08.053Z,85.04
2022-09-21T23:41:37.274Z,85.11
2022-09-21T23:44:06.086Z,84.90
2022-09-21T23:46:37.019Z,85.21
2022-09-21T23:49:05.654Z,85.16
2022-09-21T23:51:33.954Z,85.24
2022-09-21T23:54:03.779Z,85.24
2022-09-21T23:56:32.009Z,85.11
2022-09-21T23:59:00.642Z,85.28
